sensor_id;sensor_type;location;lat;lon;timestamp;temperature;humidity
13682;DHT22;6913;49.892;7.936;2022-10-01T00:02:02;6.30;99.90
13682;DHT22;6913;49.892;7.936;2022-10-01T00:04:30;6.20;99.90
13682;DHT22;6913;49.892;7.936;2022-10-01T00:06:57;6.20;99.90
13682;DHT22;6913;49.892;7.936;2022-10-01T00:09:27;6.40;99.90
13682;DHT22;6913;49.892;7.936;2022-10-01T00:11:54;6.40;99.90
13682;DHT22;6913;49.892;7.936;2022-10-01T00:14:21;6.40;99.90
13682;DHT22;6913;49.892;7.936;2022-10-01T00:16:48;6.40;99.90
13682;DHT22;6913;49.892;7.936;2022-10-01T00:19:14;6.40;99.90
13682;DHT22;6913;49.892;7.936;2022-10-01T00:21:43;6.20;99.90
13682;DHT22;6913;49.892;7.936;2022-10-01T00:24:11;7.80;99.90
13682;DHT22;6913;49.892;7.936;2022-10-01T00:26:38;6.20;99.90
13682;DHT22;6913;49.892;7.936;2022-10-01T00:29:06;6.10;99.90
13682;DHT22;6913;49.892;7.936;2022-10-01T00:31:33;6.10;99.90
13682;DHT22;6913;49.892;7.936;2022-10-01T00:34:01;6.20;99.90
13682;DHT22;6913;49.892;7.936;2022-10-01T00:36:29;6.30;99.90
13682;DHT22;6913;49.892;7.936;2022-10-01T00:38:57;6.30;99.90
13682;DHT22;6913;49.892;7.936;2022-10-01T00:41:25;6.30;99.90
13682;DHT22;6913;49.892;7.936;2022-10-01T00:43:55;6.40;99.90
13682;DHT22;6913;49.892;7.936;2022-10-01T00:46:25;6.50;99.90
13682;DHT22;6913;49.892;7.936;2022-10-01T00:48:57;6.40;99.90
13682;DHT22;6913;49.892;7.936;2022-10-01T00:51:28;6.50;99.90
13682;DHT22;6913;49.892;7.936;2022-10-01T00:54:00;6.60;99.90
13682;DHT22;6913;49.892;7.936;2022-10-01T00:56:29;6.30;99.90
13682;DHT22;6913;49.892;7.936;2022-10-01T00:58:56;5.90;99.90
13682;DHT22;6913;49.892;7.936;2022-10-01T01:01:25;6.20;99.90
13682;DHT22;6913;49.892;7.936;2022-10-01T01:03:53;5.80;99.90
13682;DHT22;6913;49.892;7.936;2022-10-01T01:06:20;5.80;99.90
13682;DHT22;6913;49.892;7.936;2022-10-01T01:08:48;5.80;99.90
13682;DHT22;6913;49.892;7.936;2022-10-01T01:11:26;5.80;99.90
13682;DHT22;6913;49.892;7.936;2022-10-01T01:14:05;5.80;99.90
13682;DHT22;6913;49.892;7.936;2022-10-01T01:16:39;5.90;99.90
13682;DHT22;6913;49.892;7.936;2022-10-01T01:19:15;6.10;99.90
13682;DHT22;6913;49.892;7.936;2022-10-01T01:21:47;6.10;99.90
13682;DHT22;6913;49.892;7.936;2022-10-01T01:24:32;6.30;99.90
13682;DHT22;6913;49.892;7.936;2022-10-01T01:27:18;6.40;99.90
13682;DHT22;6913;49.892;7.936;2022-10-01T01:29:52;6.00;99.90
13682;DHT22;6913;49.892;7.936;2022-10-01T01:32:24;6.60;99.90
13682;DHT22;6913;49.892;7.936;2022-10-01T01:34:53;7.30;99.90
13682;DHT22;6913;49.892;7.936;2022-10-01T01:37:25;6.60;99.90
13682;DHT22;6913;49.892;7.936;2022-10-01T01:39:55;6.70;99.90
13682;DHT22;6913;49.892;7.936;2022-10-01T01:42:26;6.70;99.90
13682;DHT22;6913;49.892;7.936;2022-10-01T01:44:58;6.80;99.90
13682;DHT22;6913;49.892;7.936;2022-10-01T01:47:27;6.80;99.90
13682;DHT22;6913;49.892;7.936;2022-10-01T01:49:59;6.90;99.90
13682;DHT22;6913;49.892;7.936;2022-10-01T01:52:28;6.90;99.90
13682;DHT22;6913;49.892;7.936;2022-10-01T01:54:56;6.90;99.90
13682;DHT22;6913;49.892;7.936;2022-10-01T01:57:23;6.90;99.90
13682;DHT22;6913;49.892;7.936;2022-10-01T01:59:49;6.90;99.90
13682;DHT22;6913;49.892;7.936;2022-10-01T02:02:20;6.70;99.90
13682;DHT22;6913;49.892;7.936;2022-10-01T02:04:52;6.70;99.90
13682;DHT22;6913;49.892;7.936;2022-10-01T02:10:17;6.80;99.90
13682;DHT22;6913;49.892;7.936;2022-10-01T02:12:58;6.90;99.90
13682;DHT22;6913;49.892;7.936;2022-10-01T02:15:35;6.90;99.90
13682;DHT22;6913;49.892;7.936;2022-10-01T02:18:10;6.90;99.90
13682;DHT22;6913;49.892;7.936;2022-10-01T02:20:45;7.60;99.90
13682;DHT22;6913;49.892;7.936;2022-10-01T02:23:16;7.10;99.90
13682;DHT22;6913;49.892;7.936;2022-10-01T02:25:49;7.10;99.90
13682;DHT22;6913;49.892;7.936;2022-10-01T02:28:19;7.10;99.90
13682;DHT22;6913;49.892;7.936;2022-10-01T02:30:48;7.30;99.90
13682;DHT22;6913;49.892;7.936;2022-10-01T02:33:20;7.20;99.90
13682;DHT22;6913;49.892;7.936;2022-10-01T02:35:49;7.20;99.90
13682;DHT22;6913;49.892;7.936;2022-10-01T02:38:20;7.10;99.90
13682;DHT22;6913;49.892;7.936;2022-10-01T02:40:48;6.90;99.90
13682;DHT22;6913;49.892;7.936;2022-10-01T02:43:18;6.90;99.90
13682;DHT22;6913;49.892;7.936;2022-10-01T02:45:48;7.10;99.90
13682;DHT22;6913;49.892;7.936;2022-10-01T02:48:17;7.00;99.90
13682;DHT22;6913;49.892;7.936;2022-10-01T02:50:48;6.70;99.90
13682;DHT22;6913;49.892;7.936;2022-10-01T02:53:19;7.00;99.90
13682;DHT22;6913;49.892;7.936;2022-10-01T02:55:49;7.00;99.90
13682;DHT22;6913;49.892;7.936;2022-10-01T02:58:17;7.10;99.90
13682;DHT22;6913;49.892;7.936;2022-10-01T03:00:44;7.50;99.90
13682;DHT22;6913;49.892;7.936;2022-10-01T03:03:10;7.20;99.90
13682;DHT22;6913;49.892;7.936;2022-10-01T03:05:38;7.30;99.90
13682;DHT22;6913;49.892;7.936;2022-10-01T03:08:06;7.40;99.90
13682;DHT22;6913;49.892;7.936;2022-10-01T03:10:32;7.30;99.90
13682;DHT22;6913;49.892;7.936;2022-10-01T03:12:59;7.90;99.90
13682;DHT22;6913;49.892;7.936;2022-10-01T03:15:27;7.10;99.90
13682;DHT22;6913;49.892;7.936;2022-10-01T03:17:54;7.10;99.90
13682;DHT22;6913;49.892;7.936;2022-10-01T03:20:21;7.00;99.90
13682;DHT22;6913;49.892;7.936;2022-10-01T03:22:49;7.10;99.90
13682;DHT22;6913;49.892;7.936;2022-10-01T03:25:16;7.10;99.90
13682;DHT22;6913;49.892;7.936;2022-10-01T03:27:44;7.10;99.90
13682;DHT22;6913;49.892;7.936;2022-10-01T03:30:11;7.20;99.90
13682;DHT22;6913;49.892;7.936;2022-10-01T03:32:38;7.30;99.90
13682;DHT22;6913;49.892;7.936;2022-10-01T03:35:06;7.20;99.90
13682;DHT22;6913;49.892;7.936;2022-10-01T03:37:33;7.40;99.90
13682;DHT22;6913;49.892;7.936;2022-10-01T03:40:01;8.10;99.90
13682;DHT22;6913;49.892;7.936;2022-10-01T03:42:28;7.40;99.90
13682;DHT22;6913;49.892;7.936;2022-10-01T03:44:54;8.50;99.90
13682;DHT22;6913;49.892;7.936;2022-10-01T03:47:21;7.50;99.90
13682;DHT22;6913;49.892;7.936;2022-10-01T03:49:48;7.60;99.90
13682;DHT22;6913;49.892;7.936;2022-10-01T03:52:15;7.60;99.90
13682;DHT22;6913;49.892;7.936;2022-10-01T03:54:42;7.70;99.90
13682;DHT22;6913;49.892;7.936;2022-10-01T03:57:10;7.80;99.90
13682;DHT22;6913;49.892;7.936;2022-10-01T03:59:37;7.90;99.90
13682;DHT22;6913;49.892;7.936;2022-10-01T04:02:04;8.00;99.90
13682;DHT22;6913;49.892;7.936;2022-10-01T04:04:32;9.30;99.90
13682;DHT22;6913;49.892;7.936;2022-10-01T04:06:58;8.00;99.90
13682;DHT22;6913;49.892;7.936;2022-10-01T04:09:25;8.10;99.90
13682;DHT22;6913;49.892;7.936;2022-10-01T04:11:52;8.00;99.90
13682;DHT22;6913;49.892;7.936;2022-10-01T04:14:20;8.20;99.90
13682;DHT22;6913;49.892;7.936;2022-10-01T04:16:47;8.40;99.90
13682;DHT22;6913;49.892;7.936;2022-10-01T04:19:17;8.40;99.90
13682;DHT22;6913;49.892;7.936;2022-10-01T04:21:43;9.50;99.90
13682;DHT22;6913;49.892;7.936;2022-10-01T04:24:10;8.60;99.90
13682;DHT22;6913;49.892;7.936;2022-10-01T04:26:37;8.80;99.90
13682;DHT22;6913;49.892;7.936;2022-10-01T04:29:04;8.70;99.90
13682;DHT22;6913;49.892;7.936;2022-10-01T04:31:32;9.00;99.90
13682;DHT22;6913;49.892;7.936;2022-10-01T04:34:00;9.20;99.90
13682;DHT22;6913;49.892;7.936;2022-10-01T04:36:27;8.60;99.90
13682;DHT22;6913;49.892;7.936;2022-10-01T04:38:55;9.10;99.90
13682;DHT22;6913;49.892;7.936;2022-10-01T04:41:22;9.30;99.90
13682;DHT22;6913;49.892;7.936;2022-10-01T04:43:50;9.20;99.90
13682;DHT22;6913;49.892;7.936;2022-10-01T04:46:17;9.60;99.90
13682;DHT22;6913;49.892;7.936;2022-10-01T04:48:46;9.50;99.90
13682;DHT22;6913;49.892;7.936;2022-10-01T04:51:13;9.10;99.90
13682;DHT22;6913;49.892;7.936;2022-10-01T04:53:40;10.10;99.90
13682;DHT22;6913;49.892;7.936;2022-10-01T04:56:07;9.60;99.90
13682;DHT22;6913;49.892;7.936;2022-10-01T04:58:33;9.50;99.90
13682;DHT22;6913;49.892;7.936;2022-10-01T05:01:00;10.60;99.90
13682;DHT22;6913;49.892;7.936;2022-10-01T05:03:27;9.80;99.90
13682;DHT22;6913;49.892;7.936;2022-10-01T05:05:55;9.80;99.90
13682;DHT22;6913;49.892;7.936;2022-10-01T05:08:22;9.80;99.90
13682;DHT22;6913;49.892;7.936;2022-10-01T05:10:49;9.90;99.90
13682;DHT22;6913;49.892;7.936;2022-10-01T05:13:16;10.20;99.90
13682;DHT22;6913;49.892;7.936;2022-10-01T05:15:43;10.20;99.90
13682;DHT22;6913;49.892;7.936;2022-10-01T05:18:10;10.30;99.90
13682;DHT22;6913;49.892;7.936;2022-10-01T05:20:37;10.30;99.90
13682;DHT22;6913;49.892;7.936;2022-10-01T05:23:05;10.10;99.90
13682;DHT22;6913;49.892;7.936;2022-10-01T05:25:32;10.60;99.90
13682;DHT22;6913;49.892;7.936;2022-10-01T05:27:59;10.10;99.90
13682;DHT22;6913;49.892;7.936;2022-10-01T05:30:29;10.10;99.90
13682;DHT22;6913;49.892;7.936;2022-10-01T05:32:58;10.10;99.90
13682;DHT22;6913;49.892;7.936;2022-10-01T05:35:25;10.20;99.90
13682;DHT22;6913;49.892;7.936;2022-10-01T05:37:53;10.20;99.90
13682;DHT22;6913;49.892;7.936;2022-10-01T05:40:21;10.50;99.90
13682;DHT22;6913;49.892;7.936;2022-10-01T05:42:48;10.20;99.90
13682;DHT22;6913;49.892;7.936;2022-10-01T05:45:15;10.20;99.90
13682;DHT22;6913;49.892;7.936;2022-10-01T05:47:45;10.20;99.90
13682;DHT22;6913;49.892;7.936;2022-10-01T05:50:13;10.40;99.90
13682;DHT22;6913;49.892;7.936;2022-10-01T05:52:47;10.20;99.90
13682;DHT22;6913;49.892;7.936;2022-10-01T05:55:14;10.40;99.90
13682;DHT22;6913;49.892;7.936;2022-10-01T05:57:42;10.20;99.90
13682;DHT22;6913;49.892;7.936;2022-10-01T06:00:10;10.20;99.90
13682;DHT22;6913;49.892;7.936;2022-10-01T06:02:39;10.30;99.90
13682;DHT22;6913;49.892;7.936;2022-10-01T06:05:06;10.30;99.90
13682;DHT22;6913;49.892;7.936;2022-10-01T06:07:33;10.30;99.90
13682;DHT22;6913;49.892;7.936;2022-10-01T06:09:59;10.80;99.90
13682;DHT22;6913;49.892;7.936;2022-10-01T06:12:26;10.60;99.90
13682;DHT22;6913;49.892;7.936;2022-10-01T06:14:54;10.30;99.90
13682;DHT22;6913;49.892;7.936;2022-10-01T06:17:21;10.10;99.90
13682;DHT22;6913;49.892;7.936;2022-10-01T06:19:48;10.30;99.90
13682;DHT22;6913;49.892;7.936;2022-10-01T06:22:16;10.40;99.90
13682;DHT22;6913;49.892;7.936;2022-10-01T06:24:42;11.00;99.90
13682;DHT22;6913;49.892;7.936;2022-10-01T06:27:09;10.50;99.90
13682;DHT22;6913;49.892;7.936;2022-10-01T06:29:36;10.40;99.90
13682;DHT22;6913;49.892;7.936;2022-10-01T06:32:04;10.50;99.90
13682;DHT22;6913;49.892;7.936;2022-10-01T06:34:32;12.10;99.90
13682;DHT22;6913;49.892;7.936;2022-10-01T06:36:59;10.60;99.90
13682;DHT22;6913;49.892;7.936;2022-10-01T06:39:26;10.40;99.90
13682;DHT22;6913;49.892;7.936;2022-10-01T06:41:53;10.50;99.90
13682;DHT22;6913;49.892;7.936;2022-10-01T06:44:20;11.20;99.90
13682;DHT22;6913;49.892;7.936;2022-10-01T06:46:47;10.60;99.90
13682;DHT22;6913;49.892;7.936;2022-10-01T06:49:15;10.50;99.90
13682;DHT22;6913;49.892;7.936;2022-10-01T06:51:45;10.60;99.90
13682;DHT22;6913;49.892;7.936;2022-10-01T06:54:29;10.60;99.90
13682;DHT22;6913;49.892;7.936;2022-10-01T06:56:56;10.70;99.90
13682;DHT22;6913;49.892;7.936;2022-10-01T06:59:22;10.70;99.90
13682;DHT22;6913;49.892;7.936;2022-10-01T07:01:49;10.90;99.90
13682;DHT22;6913;49.892;7.936;2022-10-01T07:04:19;10.60;99.90
13682;DHT22;6913;49.892;7.936;2022-10-01T07:06:46;10.60;99.90
13682;DHT22;6913;49.892;7.936;2022-10-01T07:09:13;10.60;99.90
13682;DHT22;6913;49.892;7.936;2022-10-01T07:11:40;10.60;99.90
13682;DHT22;6913;49.892;7.936;2022-10-01T07:14:07;10.80;99.90
13682;DHT22;6913;49.892;7.936;2022-10-01T07:16:37;10.70;99.90
13682;DHT22;6913;49.892;7.936;2022-10-01T07:19:21;11.30;99.90
13682;DHT22;6913;49.892;7.936;2022-10-01T07:21:48;11.20;99.90
13682;DHT22;6913;49.892;7.936;2022-10-01T07:24:15;10.70;99.90
13682;DHT22;6913;49.892;7.936;2022-10-01T07:26:42;11.20;99.90
13682;DHT22;6913;49.892;7.936;2022-10-01T07:29:09;9.70;99.90
13682;DHT22;6913;49.892;7.936;2022-10-01T07:31:35;10.70;99.90
13682;DHT22;6913;49.892;7.936;2022-10-01T07:34:02;10.70;99.90
13682;DHT22;6913;49.892;7.936;2022-10-01T07:36:30;10.50;99.90
13682;DHT22;6913;49.892;7.936;2022-10-01T07:38:57;11.10;99.90
13682;DHT22;6913;49.892;7.936;2022-10-01T07:41:26;10.70;99.90
13682;DHT22;6913;49.892;7.936;2022-10-01T07:43:52;11.50;99.90
13682;DHT22;6913;49.892;7.936;2022-10-01T07:46:19;11.30;99.90
13682;DHT22;6913;49.892;7.936;2022-10-01T07:48:47;11.00;99.90
13682;DHT22;6913;49.892;7.936;2022-10-01T07:51:14;10.90;99.90
13682;DHT22;6913;49.892;7.936;2022-10-01T07:53:42;10.80;99.90
13682;DHT22;6913;49.892;7.936;2022-10-01T07:56:09;10.70;99.90
13682;DHT22;6913;49.892;7.936;2022-10-01T07:58:35;10.80;99.90
13682;DHT22;6913;49.892;7.936;2022-10-01T08:01:03;11.30;99.90
13682;DHT22;6913;49.892;7.936;2022-10-01T08:03:29;10.80;99.90
13682;DHT22;6913;49.892;7.936;2022-10-01T08:05:56;10.80;99.90
13682;DHT22;6913;49.892;7.936;2022-10-01T08:08:23;11.10;99.90
13682;DHT22;6913;49.892;7.936;2022-10-01T08:10:51;10.80;99.90
13682;DHT22;6913;49.892;7.936;2022-10-01T08:13:19;10.80;99.90
13682;DHT22;6913;49.892;7.936;2022-10-01T08:15:49;10.80;99.90
13682;DHT22;6913;49.892;7.936;2022-10-01T08:18:18;10.90;99.90
13682;DHT22;6913;49.892;7.936;2022-10-01T08:20:47;11.20;99.90
13682;DHT22;6913;49.892;7.936;2022-10-01T08:23:15;10.90;99.90
13682;DHT22;6913;49.892;7.936;2022-10-01T08:25:43;11.50;99.90
13682;DHT22;6913;49.892;7.936;2022-10-01T08:28:11;11.00;99.90
13682;DHT22;6913;49.892;7.936;2022-10-01T08:30:40;11.80;99.90
13682;DHT22;6913;49.892;7.936;2022-10-01T08:33:09;11.10;99.90
13682;DHT22;6913;49.892;7.936;2022-10-01T08:35:37;11.20;99.90
13682;DHT22;6913;49.892;7.936;2022-10-01T08:38:05;11.50;99.90
13682;DHT22;6913;49.892;7.936;2022-10-01T08:40:33;11.30;99.90
13682;DHT22;6913;49.892;7.936;2022-10-01T08:43:04;11.60;99.90
13682;DHT22;6913;49.892;7.936;2022-10-01T08:45:38;11.50;99.90
13682;DHT22;6913;49.892;7.936;2022-10-01T08:48:12;11.40;99.90
13682;DHT22;6913;49.892;7.936;2022-10-01T08:50:45;11.50;99.90
13682;DHT22;6913;49.892;7.936;2022-10-01T08:53:32;11.50;99.90
13682;DHT22;6913;49.892;7.936;2022-10-01T08:56:01;11.60;99.90
13682;DHT22;6913;49.892;7.936;2022-10-01T08:58:34;12.00;99.90
13682;DHT22;6913;49.892;7.936;2022-10-01T09:01:08;11.70;99.90
13682;DHT22;6913;49.892;7.936;2022-10-01T09:03:36;11.80;99.90
13682;DHT22;6913;49.892;7.936;2022-10-01T09:08:48;12.10;99.90
13682;DHT22;6913;49.892;7.936;2022-10-01T09:11:26;12.10;99.90
13682;DHT22;6913;49.892;7.936;2022-10-01T09:14:12;12.10;99.90
13682;DHT22;6913;49.892;7.936;2022-10-01T09:16:48;12.90;99.90
13682;DHT22;6913;49.892;7.936;2022-10-01T09:19:28;12.10;99.90
13682;DHT22;6913;49.892;7.936;2022-10-01T09:21:59;12.20;99.90
13682;DHT22;6913;49.892;7.936;2022-10-01T09:24:38;12.30;99.90
13682;DHT22;6913;49.892;7.936;2022-10-01T09:27:11;12.30;99.90
13682;DHT22;6913;49.892;7.936;2022-10-01T09:29:45;12.40;99.90
13682;DHT22;6913;49.892;7.936;2022-10-01T09:32:18;12.50;99.90
13682;DHT22;6913;49.892;7.936;2022-10-01T09:34:46;12.50;99.90
13682;DHT22;6913;49.892;7.936;2022-10-01T09:37:20;12.60;99.90
13682;DHT22;6913;49.892;7.936;2022-10-01T09:39:58;12.60;99.90
13682;DHT22;6913;49.892;7.936;2022-10-01T09:42:28;12.60;99.90
13682;DHT22;6913;49.892;7.936;2022-10-01T09:44:55;12.60;99.90
13682;DHT22;6913;49.892;7.936;2022-10-01T09:47:24;12.70;99.90
13682;DHT22;6913;49.892;7.936;2022-10-01T09:49:51;12.80;99.90
13682;DHT22;6913;49.892;7.936;2022-10-01T09:52:22;12.80;99.90
13682;DHT22;6913;49.892;7.936;2022-10-01T09:54:56;13.00;99.90
13682;DHT22;6913;49.892;7.936;2022-10-01T09:57:29;13.00;99.90
13682;DHT22;6913;49.892;7.936;2022-10-01T10:00:03;13.10;99.90
13682;DHT22;6913;49.892;7.936;2022-10-01T10:02:38;13.20;99.90
13682;DHT22;6913;49.892;7.936;2022-10-01T10:05:07;13.20;99.90
13682;DHT22;6913;49.892;7.936;2022-10-01T10:07:35;13.30;99.90
13682;DHT22;6913;49.892;7.936;2022-10-01T10:10:09;13.30;99.90
13682;DHT22;6913;49.892;7.936;2022-10-01T10:12:37;13.40;99.90
13682;DHT22;6913;49.892;7.936;2022-10-01T10:15:08;13.40;99.90
13682;DHT22;6913;49.892;7.936;2022-10-01T10:17:44;13.40;99.90
13682;DHT22;6913;49.892;7.936;2022-10-01T10:20:22;13.50;99.90
13682;DHT22;6913;49.892;7.936;2022-10-01T10:22:50;13.60;99.90
13682;DHT22;6913;49.892;7.936;2022-10-01T10:25:21;13.60;99.90
13682;DHT22;6913;49.892;7.936;2022-10-01T10:27:54;13.60;99.90
13682;DHT22;6913;49.892;7.936;2022-10-01T10:30:24;13.90;99.90
13682;DHT22;6913;49.892;7.936;2022-10-01T10:33:00;13.70;99.90
13682;DHT22;6913;49.892;7.936;2022-10-01T10:35:27;13.70;99.90
13682;DHT22;6913;49.892;7.936;2022-10-01T10:37:57;13.60;99.90
13682;DHT22;6913;49.892;7.936;2022-10-01T10:40:26;13.40;99.90
13682;DHT22;6913;49.892;7.936;2022-10-01T10:42:54;13.50;99.90
13682;DHT22;6913;49.892;7.936;2022-10-01T10:45:30;13.60;99.90
13682;DHT22;6913;49.892;7.936;2022-10-01T10:47:59;13.60;99.90
13682;DHT22;6913;49.892;7.936;2022-10-01T10:50:30;13.60;99.90
13682;DHT22;6913;49.892;7.936;2022-10-01T10:52:57;13.60;99.90
13682;DHT22;6913;49.892;7.936;2022-10-01T10:55:27;13.80;99.90
13682;DHT22;6913;49.892;7.936;2022-10-01T10:57:56;14.00;99.90
13682;DHT22;6913;49.892;7.936;2022-10-01T11:00:35;17.50;99.90
13682;DHT22;6913;49.892;7.936;2022-10-01T11:03:14;14.70;99.90
13682;DHT22;6913;49.892;7.936;2022-10-01T11:05:42;14.90;99.90
13682;DHT22;6913;49.892;7.936;2022-10-01T11:08:13;14.80;99.90
13682;DHT22;6913;49.892;7.936;2022-10-01T11:10:51;16.30;99.90
13682;DHT22;6913;49.892;7.936;2022-10-01T11:13:37;17.30;99.90
13682;DHT22;6913;49.892;7.936;2022-10-01T11:19:15;16.10;99.90
13682;DHT22;6913;49.892;7.936;2022-10-01T11:21:57;18.10;99.90
13682;DHT22;6913;49.892;7.936;2022-10-01T11:24:46;15.90;99.90
13682;DHT22;6913;49.892;7.936;2022-10-01T11:27:22;16.30;99.90
13682;DHT22;6913;49.892;7.936;2022-10-01T11:29:59;15.80;99.90
13682;DHT22;6913;49.892;7.936;2022-10-01T11:32:34;15.50;99.90
13682;DHT22;6913;49.892;7.936;2022-10-01T11:35:18;17.60;99.90
13682;DHT22;6913;49.892;7.936;2022-10-01T11:37:58;17.60;99.90
13682;DHT22;6913;49.892;7.936;2022-10-01T11:40:31;15.80;99.90
13682;DHT22;6913;49.892;7.936;2022-10-01T11:43:02;16.30;99.90
13682;DHT22;6913;49.892;7.936;2022-10-01T11:45:35;17.10;99.90
13682;DHT22;6913;49.892;7.936;2022-10-01T11:48:07;15.40;99.90
13682;DHT22;6913;49.892;7.936;2022-10-01T11:50:40;17.50;99.90
13682;DHT22;6913;49.892;7.936;2022-10-01T11:53:11;18.10;99.90
13682;DHT22;6913;49.892;7.936;2022-10-01T11:55:43;14.80;99.90
13682;DHT22;6913;49.892;7.936;2022-10-01T11:58:33;16.00;99.90
13682;DHT22;6913;49.892;7.936;2022-10-01T12:01:25;16.00;99.90
13682;DHT22;6913;49.892;7.936;2022-10-01T12:04:04;16.60;99.90
13682;DHT22;6913;49.892;7.936;2022-10-01T12:06:38;17.30;99.90
13682;DHT22;6913;49.892;7.936;2022-10-01T12:09:11;16.90;99.90
13682;DHT22;6913;49.892;7.936;2022-10-01T12:11:45;17.30;99.90
13682;DHT22;6913;49.892;7.936;2022-10-01T12:14:17;17.50;99.90
13682;DHT22;6913;49.892;7.936;2022-10-01T12:16:49;18.40;99.90
13682;DHT22;6913;49.892;7.936;2022-10-01T12:19:22;16.40;99.90
13682;DHT22;6913;49.892;7.936;2022-10-01T12:21:55;19.90;99.90
13682;DHT22;6913;49.892;7.936;2022-10-01T12:24:29;17.80;99.90
13682;DHT22;6913;49.892;7.936;2022-10-01T12:27:24;18.70;99.90
13682;DHT22;6913;49.892;7.936;2022-10-01T12:29:56;16.80;99.90
13682;DHT22;6913;49.892;7.936;2022-10-01T12:32:35;18.30;99.90
13682;DHT22;6913;49.892;7.936;2022-10-01T12:35:16;18.50;99.90
13682;DHT22;6913;49.892;7.936;2022-10-01T12:38:00;18.40;99.90
13682;DHT22;6913;49.892;7.936;2022-10-01T12:40:37;18.10;99.90
13682;DHT22;6913;49.892;7.936;2022-10-01T12:43:28;18.20;99.90
13682;DHT22;6913;49.892;7.936;2022-10-01T12:46:04;18.60;99.90
13682;DHT22;6913;49.892;7.936;2022-10-01T12:48:39;17.70;99.90
13682;DHT22;6913;49.892;7.936;2022-10-01T12:54:47;18.80;99.90
13682;DHT22;6913;49.892;7.936;2022-10-01T12:57:29;18.50;99.90
13682;DHT22;6913;49.892;7.936;2022-10-01T13:00:08;18.80;99.90
13682;DHT22;6913;49.892;7.936;2022-10-01T13:02:54;19.10;99.90
13682;DHT22;6913;49.892;7.936;2022-10-01T13:05:33;19.10;99.90
13682;DHT22;6913;49.892;7.936;2022-10-01T13:08:15;19.20;99.90
13682;DHT22;6913;49.892;7.936;2022-10-01T13:10:53;18.90;99.90
13682;DHT22;6913;49.892;7.936;2022-10-01T13:13:27;19.10;99.90
13682;DHT22;6913;49.892;7.936;2022-10-01T13:16:03;18.90;99.90
13682;DHT22;6913;49.892;7.936;2022-10-01T13:18:40;18.80;99.90
13682;DHT22;6913;49.892;7.936;2022-10-01T13:21:15;18.80;99.90
13682;DHT22;6913;49.892;7.936;2022-10-01T13:23:48;18.80;99.90
13682;DHT22;6913;49.892;7.936;2022-10-01T13:26:22;19.90;99.90
13682;DHT22;6913;49.892;7.936;2022-10-01T13:28:59;17.20;99.90
13682;DHT22;6913;49.892;7.936;2022-10-01T13:31:36;19.50;99.90
13682;DHT22;6913;49.892;7.936;2022-10-01T13:34:23;19.10;99.90
13682;DHT22;6913;49.892;7.936;2022-10-01T13:36:51;18.70;99.90
13682;DHT22;6913;49.892;7.936;2022-10-01T13:39:21;19.10;99.90
13682;DHT22;6913;49.892;7.936;2022-10-01T13:41:56;18.70;99.90
13682;DHT22;6913;49.892;7.936;2022-10-01T13:44:26;18.80;99.90
13682;DHT22;6913;49.892;7.936;2022-10-01T13:47:01;18.80;99.90
13682;DHT22;6913;49.892;7.936;2022-10-01T13:49:31;19.50;99.90
13682;DHT22;6913;49.892;7.936;2022-10-01T13:51:59;18.80;99.90
13682;DHT22;6913;49.892;7.936;2022-10-01T13:54:32;19.00;99.90
13682;DHT22;6913;49.892;7.936;2022-10-01T13:57:21;19.10;99.90
13682;DHT22;6913;49.892;7.936;2022-10-01T13:59:57;20.10;99.90
13682;DHT22;6913;49.892;7.936;2022-10-01T14:02:31;17.90;99.90
13682;DHT22;6913;49.892;7.936;2022-10-01T14:05:26;21.00;99.90
13682;DHT22;6913;49.892;7.936;2022-10-01T14:08:02;18.60;99.90
13682;DHT22;6913;49.892;7.936;2022-10-01T14:10:35;17.70;99.90
13682;DHT22;6913;49.892;7.936;2022-10-01T14:13:27;19.20;99.90
13682;DHT22;6913;49.892;7.936;2022-10-01T14:16:13;19.50;99.90
13682;DHT22;6913;49.892;7.936;2022-10-01T14:18:42;19.10;99.90
13682;DHT22;6913;49.892;7.936;2022-10-01T14:21:23;20.50;99.90
13682;DHT22;6913;49.892;7.936;2022-10-01T14:23:57;20.50;99.90
13682;DHT22;6913;49.892;7.936;2022-10-01T14:26:32;19.00;99.90
13682;DHT22;6913;49.892;7.936;2022-10-01T14:29:09;16.10;99.90
13682;DHT22;6913;49.892;7.936;2022-10-01T14:31:46;19.30;99.90
13682;DHT22;6913;49.892;7.936;2022-10-01T14:34:23;17.40;99.90
13682;DHT22;6913;49.892;7.936;2022-10-01T14:36:53;19.70;99.90
13682;DHT22;6913;49.892;7.936;2022-10-01T14:39:23;18.60;99.90
13682;DHT22;6913;49.892;7.936;2022-10-01T14:41:51;18.60;99.90
13682;DHT22;6913;49.892;7.936;2022-10-01T14:44:22;19.10;99.90
13682;DHT22;6913;49.892;7.936;2022-10-01T14:46:50;16.60;99.90
13682;DHT22;6913;49.892;7.936;2022-10-01T14:49:19;17.90;99.90
13682;DHT22;6913;49.892;7.936;2022-10-01T14:51:52;17.60;99.90
13682;DHT22;6913;49.892;7.936;2022-10-01T14:54:19;16.30;99.90
13682;DHT22;6913;49.892;7.936;2022-10-01T14:56:47;16.20;99.90
13682;DHT22;6913;49.892;7.936;2022-10-01T14:59:20;16.20;99.90
13682;DHT22;6913;49.892;7.936;2022-10-01T15:01:57;16.50;99.90
13682;DHT22;6913;49.892;7.936;2022-10-01T15:04:24;17.30;99.90
13682;DHT22;6913;49.892;7.936;2022-10-01T15:06:51;15.80;99.90
13682;DHT22;6913;49.892;7.936;2022-10-01T15:09:18;15.80;99.90
13682;DHT22;6913;49.892;7.936;2022-10-01T15:11:47;15.70;99.90
13682;DHT22;6913;49.892;7.936;2022-10-01T15:14:18;15.50;99.90
13682;DHT22;6913;49.892;7.936;2022-10-01T15:16:47;15.90;99.90
13682;DHT22;6913;49.892;7.936;2022-10-01T15:19:17;15.50;99.90
13682;DHT22;6913;49.892;7.936;2022-10-01T15:21:48;15.60;99.90
13682;DHT22;6913;49.892;7.936;2022-10-01T15:24:21;15.60;99.90
13682;DHT22;6913;49.892;7.936;2022-10-01T15:26:51;15.60;99.90
13682;DHT22;6913;49.892;7.936;2022-10-01T15:29:19;15.80;99.90
13682;DHT22;6913;49.892;7.936;2022-10-01T15:31:48;15.70;99.90
13682;DHT22;6913;49.892;7.936;2022-10-01T15:34:17;17.60;99.90
13682;DHT22;6913;49.892;7.936;2022-10-01T15:36:45;16.50;99.90
13682;DHT22;6913;49.892;7.936;2022-10-01T15:39:24;19.00;99.90
13682;DHT22;6913;49.892;7.936;2022-10-01T15:41:53;17.70;99.90
13682;DHT22;6913;49.892;7.936;2022-10-01T15:44:40;16.60;99.90
13682;DHT22;6913;49.892;7.936;2022-10-01T15:47:31;16.00;99.90
13682;DHT22;6913;49.892;7.936;2022-10-01T15:50:27;16.40;99.90
13682;DHT22;6913;49.892;7.936;2022-10-01T15:53:00;16.00;99.90
13682;DHT22;6913;49.892;7.936;2022-10-01T15:55:33;16.00;99.90
13682;DHT22;6913;49.892;7.936;2022-10-01T15:58:05;16.00;99.90
13682;DHT22;6913;49.892;7.936;2022-10-01T16:00:40;15.90;99.90
13682;DHT22;6913;49.892;7.936;2022-10-01T16:03:17;15.90;99.90
13682;DHT22;6913;49.892;7.936;2022-10-01T16:05:46;16.80;99.90
13682;DHT22;6913;49.892;7.936;2022-10-01T16:08:15;15.60;99.90
13682;DHT22;6913;49.892;7.936;2022-10-01T16:10:47;15.80;99.90
13682;DHT22;6913;49.892;7.936;2022-10-01T16:13:31;18.10;99.90
13682;DHT22;6913;49.892;7.936;2022-10-01T16:16:24;17.20;99.90
13682;DHT22;6913;49.892;7.936;2022-10-01T16:18:56;16.00;99.90
13682;DHT22;6913;49.892;7.936;2022-10-01T16:21:23;15.50;99.90
13682;DHT22;6913;49.892;7.936;2022-10-01T16:23:51;15.50;99.90
13682;DHT22;6913;49.892;7.936;2022-10-01T16:26:32;15.50;99.90
13682;DHT22;6913;49.892;7.936;2022-10-01T16:29:02;15.30;99.90